Barbarossa — IBJD — position and weather

sailwx.info

Track history (hours):
 
Tides and Currents Weather Stations Pressure Air Temp Water Temp Dewpoint Dewpoint Depression Visibility Wind Speed Wind Dir Waves Ship Positions

Barbarossa

Last reported at 2018-Aug-16 18:24 UTC. Time now 2018-Aug-16 20:18 UTC.
Position N 36°57' E 024°13'.

Length 294 m; draft 8.1 m.

Type: Ship. MMSI: 247282900.

Date/timePositionNaut miles runAvg speedWind from/ knotsBaromVisibWave heightAir tempDewpointWater temp
2018-Aug-16 18:24N 36°57' E 024°13'614.8
2018-Aug-16 18:00N 36°60' E 024°20'2715.8
2018-Aug-16 16:19N 37°14' E 024°48'517.5
2018-Aug-16 16:01N 37°17' E 024°54'918.9
2018-Aug-16 15:31N 37°23' E 025°02'917.4
2018-Aug-16 15:01N 37°28' E 025°12'610.8
2018-Aug-16 14:28N 37°28' E 025°19'0 0.0
2018-Aug-16 13:58N 37°28' E 025°19'0 0.0
2018-Aug-16 13:28N 37°28' E 025°19'0 0.0
2018-Aug-16 12:58N 37°28' E 025°19'0 0.0
2018-Aug-16 12:28N 37°28' E 025°19'0 0.0
2018-Aug-16 11:58N 37°28' E 025°19'0 0.0
2018-Aug-16 11:28N 37°28' E 025°19'0 0.0
2018-Aug-16 10:58N 37°28' E 025°19'0 0.0
2018-Aug-16 10:28N 37°28' E 025°19'0 0.0
2018-Aug-16 09:58N 37°28' E 025°19'0 0.0
2018-Aug-16 09:28N 37°28' E 025°19'0 0.0
2018-Aug-16 08:58N 37°28' E 025°19'0 0.0
2018-Aug-16 08:28N 37°28' E 025°19'0 0.0
2018-Aug-16 07:58N 37°28' E 025°19'0 0.0
2018-Aug-16 07:28N 37°28' E 025°19'0 0.0
2018-Aug-16 06:58N 37°28' E 025°19'0 0.0
2018-Aug-16 06:28N 37°28' E 025°19'0 0.0
2018-Aug-16 05:58N 37°28' E 025°19'0 0.0
2018-Aug-16 05:25N 37°28' E 025°19'0 0.0
2018-Aug-16 04:58N 37°28' E 025°19'0 0.0
2018-Aug-16 04:28N 37°28' E 025°19'0 0.0
2018-Aug-16 03:58N 37°28' E 025°19'0 0.0
2018-Aug-16 03:30N 37°28' E 025°19'0 0.8
2018-Aug-16 03:00N 37°28' E 025°19'5 9.7
2018-Aug-16 02:30N 37°28' E 025°13'510.8
2018-Aug-16 02:00N 37°24' E 025°07'712.4
2018-Aug-16 01:28N 37°18' E 025°05'613.6
2018-Aug-16 01:00N 37°16' E 024°58'612.8
2018-Aug-16 00:30N 37°13' E 024°51'93 4.4
2018-Aug-15 03:23N 36°21' E 023°14'55611.5
2018-Aug-13 02:53N 43°06' E 014°57'718.8
2018-Aug-13 02:30N 43°11' E 014°50'2618.6
2018-Aug-13 01:07N 43°29' E 014°25'318.4
2018-Aug-13 00:58N 43°31' E 014°22'818.5
2018-Aug-13 00:30N 43°37' E 014°14'918.6
2018-Aug-13 00:00N 43°43' E 014°04'1018.5
2018-Aug-12 23:27N 43°50' E 013°54'1218.5
2018-Aug-12 22:49N 43°57' E 013°41'2018.4
2018-Aug-12 21:44N 44°09' E 013°18'717.8
2018-Aug-12 21:20N 44°13' E 013°11'1018.4
2018-Aug-12 20:47N 44°23' E 013°07'818.3
2018-Aug-12 20:22N 44°30' E 013°03'718.3
2018-Aug-12 19:58N 44°38' E 013°01'818.4
2018-Aug-12 19:30N 44°46' E 012°57'918.3
2018-Aug-12 19:00N 44°54' E 012°51'918.3
2018-Aug-12 18:30N 45°02' E 012°46'917.5
2018-Aug-12 18:01N 45°08' E 012°38'816.4
2018-Aug-12 17:31N 45°15' E 012°30'816.6
2018-Aug-12 17:01N 45°23' E 012°30'5 9.4
2018-Aug-12 16:30N 45°26' E 012°24'2 4.9
2018-Aug-12 16:00N 45°26' E 012°21'2 3.7
2018-Aug-12 15:30N 45°26' E 012°18'0 0.5
2018-Aug-12 15:00N 45°26' E 012°18'0 0.0
2018-Aug-12 14:29N 45°26' E 012°18'0 0.0
2018-Aug-12 13:59N 45°26' E 012°18'0 0.0
2018-Aug-12 13:29N 45°26' E 012°18'0 0.0
2018-Aug-12 12:41N 45°26' E 012°18'0 0.0
2018-Aug-12 12:29N 45°26' E 012°18'0 0.0
2018-Aug-12 11:59N 45°26' E 012°18'0 0.0
2018-Aug-12 11:29N 45°26' E 012°18'0 0.0
2018-Aug-12 10:59N 45°26' E 012°18'0 0.0
2018-Aug-12 10:30N 45°26' E 012°18'0 0.0
2018-Aug-12 10:00N 45°26' E 012°18'0 0.0
2018-Aug-12 09:30N 45°26' E 012°18'0 0.0
2018-Aug-12 09:00N 45°26' E 012°18'0 0.0
2018-Aug-12 08:29N 45°26' E 012°18'0 0.0
2018-Aug-12 07:58N 45°26' E 012°18'0 0.0
2018-Aug-12 07:30N 45°26' E 012°18'0 0.2
2018-Aug-12 07:00N 45°26' E 012°18'2 3.2
2018-Aug-12 06:30N 45°26' E 012°20'2 4.7
2018-Aug-12 06:01N 45°26' E 012°24'4 7.9
2018-Aug-12 05:30N 45°24' E 012°29'4 8.4
2018-Aug-12 05:00N 45°21' E 012°32'814.8
2018-Aug-12 04:30N 45°14' E 012°37'918.2
2018-Aug-12 04:00N 45°08' E 012°47'918.1
2018-Aug-12 03:30N 45°00' E 012°53'918.0
2018-Aug-12 03:00N 44°52' E 012°58'918.2
2018-Aug-12 02:30N 44°44' E 013°03'918.2
2018-Aug-12 02:00N 44°35' E 013°07'918.1
2018-Aug-12 01:30N 44°26' E 013°11'918.1
2018-Aug-12 01:00N 44°18' E 013°15'2017.8
2018-Aug-11 23:53N 44°06' E 013°37'617.4
2018-Aug-11 23:31N 44°02' E 013°44'917.4
2018-Aug-11 23:00N 43°57' E 013°54'917.6
2018-Aug-11 22:30N 43°52' E 014°04'917.5
2018-Aug-11 22:00N 43°48' E 014°15'7717.6
2018-Aug-11 17:38N 43°27' E 015°57'160 7.6
2018-Aug-10 20:30N 41°18' E 018°03'1817.6
2018-Aug-10 19:28N 41°04' E 018°19'38014.1
2018-Aug-09 16:30N 37°14' E 024°48'918.4
2018-Aug-09 16:01N 37°19' E 024°57'1019.1
2018-Aug-09 15:30N 37°26' E 025°05'918.0
2018-Aug-09 15:01N 37°28' E 025°16'2 4.9
2018-Aug-09 14:30N 37°27' E 025°19'0 0.0
2018-Aug-09 14:00N 37°27' E 025°19'0 0.0
2018-Aug-09 13:22N 37°27' E 025°19'0 0.1
2018-Aug-09 12:37N 37°27' E 025°19'0 0.0
2018-Aug-09 12:22N 37°27' E 025°19'0 0.0
2018-Aug-09 11:55N 37°27' E 025°19'0 0.0
2018-Aug-09 11:28N 37°27' E 025°19'0 0.0
2018-Aug-09 10:22N 37°27' E 025°19'0 0.0
2018-Aug-09 09:55N 37°27' E 025°19'0 0.0
2018-Aug-09 09:30N 37°27' E 025°19'0 0.0
2018-Aug-09 09:00N 37°27' E 025°19'0 0.0
2018-Aug-09 08:30N 37°27' E 025°19'0 0.0
2018-Aug-09 07:58N 37°27' E 025°19'0 0.0
2018-Aug-09 07:29N 37°27' E 025°19'0 0.0
2018-Aug-09 07:00N 37°27' E 025°19'0 0.0
2018-Aug-09 06:30N 37°27' E 025°19'0 0.0
2018-Aug-09 06:00N 37°27' E 025°19'0 0.0
2018-Aug-09 05:30N 37°27' E 025°19'0 0.0
2018-Aug-09 05:00N 37°27' E 025°19'0 0.0
2018-Aug-09 04:29N 37°27' E 025°19'0 0.3
2018-Aug-09 04:00N 37°27' E 025°19'3 5.7
2018-Aug-09 03:30N 37°28' E 025°16'611.1
2018-Aug-09 03:00N 37°26' E 025°09'611.9
2018-Aug-09 02:30N 37°21' E 025°07'612.0
2018-Aug-09 02:00N 37°17' E 025°01'612.7
2018-Aug-09 01:30N 37°15' E 024°53'  
2018-Aug-06 20:20N 41°07' E 017°30'  
Track history (hours):
 
Tides and Currents Weather Stations Pressure Air Temp Water Temp Dewpoint Dewpoint Depression Visibility Wind Speed Wind Dir Waves Ship Positions

Barbarossa

Last reported at 2018-Aug-16 18:24 UTC. Time now 2018-Aug-16 20:18 UTC.
Position N 36°57' E 024°13'.

Length 294 m; draft 8.1 m.

Type: Ship. MMSI: 247282900.

Date/timePositionNaut miles runAvg speedWind from/ knotsBaromVisibWave heightAir tempDewpointWater temp
2018-Aug-16 18:24N 36°57' E 024°13'614.8
2018-Aug-16 18:00N 36°60' E 024°20'2715.8
2018-Aug-16 16:19N 37°14' E 024°48'517.5
2018-Aug-16 16:01N 37°17' E 024°54'918.9
2018-Aug-16 15:31N 37°23' E 025°02'917.4
2018-Aug-16 15:01N 37°28' E 025°12'610.8
2018-Aug-16 14:28N 37°28' E 025°19'0 0.0
2018-Aug-16 13:58N 37°28' E 025°19'0 0.0
2018-Aug-16 13:28N 37°28' E 025°19'0 0.0
2018-Aug-16 12:58N 37°28' E 025°19'0 0.0
2018-Aug-16 12:28N 37°28' E 025°19'0 0.0
2018-Aug-16 11:58N 37°28' E 025°19'0 0.0
2018-Aug-16 11:28N 37°28' E 025°19'0 0.0
2018-Aug-16 10:58N 37°28' E 025°19'0 0.0
2018-Aug-16 10:28N 37°28' E 025°19'0 0.0
2018-Aug-16 09:58N 37°28' E 025°19'0 0.0
2018-Aug-16 09:28N 37°28' E 025°19'0 0.0
2018-Aug-16 08:58N 37°28' E 025°19'0 0.0
2018-Aug-16 08:28N 37°28' E 025°19'0 0.0
2018-Aug-16 07:58N 37°28' E 025°19'0 0.0
2018-Aug-16 07:28N 37°28' E 025°19'0 0.0
2018-Aug-16 06:58N 37°28' E 025°19'0 0.0
2018-Aug-16 06:28N 37°28' E 025°19'0 0.0
2018-Aug-16 05:58N 37°28' E 025°19'0 0.0
2018-Aug-16 05:25N 37°28' E 025°19'0 0.0
2018-Aug-16 04:58N 37°28' E 025°19'0 0.0
2018-Aug-16 04:28N 37°28' E 025°19'0 0.0
2018-Aug-16 03:58N 37°28' E 025°19'0 0.0
2018-Aug-16 03:30N 37°28' E 025°19'0 0.8
2018-Aug-16 03:00N 37°28' E 025°19'5 9.7
2018-Aug-16 02:30N 37°28' E 025°13'510.8
2018-Aug-16 02:00N 37°24' E 025°07'712.4
2018-Aug-16 01:28N 37°18' E 025°05'613.6
2018-Aug-16 01:00N 37°16' E 024°58'612.8
2018-Aug-16 00:30N 37°13' E 024°51'93 4.4
2018-Aug-15 03:23N 36°21' E 023°14'55611.5
2018-Aug-13 02:53N 43°06' E 014°57'718.8
2018-Aug-13 02:30N 43°11' E 014°50'2618.6
2018-Aug-13 01:07N 43°29' E 014°25'318.4
2018-Aug-13 00:58N 43°31' E 014°22'818.5
2018-Aug-13 00:30N 43°37' E 014°14'918.6
2018-Aug-13 00:00N 43°43' E 014°04'1018.5
2018-Aug-12 23:27N 43°50' E 013°54'1218.5
2018-Aug-12 22:49N 43°57' E 013°41'2018.4
2018-Aug-12 21:44N 44°09' E 013°18'717.8
2018-Aug-12 21:20N 44°13' E 013°11'1018.4
2018-Aug-12 20:47N 44°23' E 013°07'818.3
2018-Aug-12 20:22N 44°30' E 013°03'718.3
2018-Aug-12 19:58N 44°38' E 013°01'818.4
2018-Aug-12 19:30N 44°46' E 012°57'918.3
2018-Aug-12 19:00N 44°54' E 012°51'918.3
2018-Aug-12 18:30N 45°02' E 012°46'917.5
2018-Aug-12 18:01N 45°08' E 012°38'816.4
2018-Aug-12 17:31N 45°15' E 012°30'816.6
2018-Aug-12 17:01N 45°23' E 012°30'5 9.4
2018-Aug-12 16:30N 45°26' E 012°24'2 4.9
2018-Aug-12 16:00N 45°26' E 012°21'2 3.7
2018-Aug-12 15:30N 45°26' E 012°18'0 0.5
2018-Aug-12 15:00N 45°26' E 012°18'0 0.0
2018-Aug-12 14:29N 45°26' E 012°18'0 0.0
2018-Aug-12 13:59N 45°26' E 012°18'0 0.0
2018-Aug-12 13:29N 45°26' E 012°18'0 0.0
2018-Aug-12 12:41N 45°26' E 012°18'0 0.0
2018-Aug-12 12:29N 45°26' E 012°18'0 0.0
2018-Aug-12 11:59N 45°26' E 012°18'0 0.0
2018-Aug-12 11:29N 45°26' E 012°18'0 0.0
2018-Aug-12 10:59N 45°26' E 012°18'0 0.0
2018-Aug-12 10:30N 45°26' E 012°18'0 0.0
2018-Aug-12 10:00N 45°26' E 012°18'0 0.0
2018-Aug-12 09:30N 45°26' E 012°18'0 0.0
2018-Aug-12 09:00N 45°26' E 012°18'0 0.0
2018-Aug-12 08:29N 45°26' E 012°18'0 0.0
2018-Aug-12 07:58N 45°26' E 012°18'0 0.0
2018-Aug-12 07:30N 45°26' E 012°18'0 0.2
2018-Aug-12 07:00N 45°26' E 012°18'2 3.2
2018-Aug-12 06:30N 45°26' E 012°20'2 4.7
2018-Aug-12 06:01N 45°26' E 012°24'4 7.9
2018-Aug-12 05:30N 45°24' E 012°29'4 8.4
2018-Aug-12 05:00N 45°21' E 012°32'814.8
2018-Aug-12 04:30N 45°14' E 012°37'918.2
2018-Aug-12 04:00N 45°08' E 012°47'918.1
2018-Aug-12 03:30N 45°00' E 012°53'918.0
2018-Aug-12 03:00N 44°52' E 012°58'918.2
2018-Aug-12 02:30N 44°44' E 013°03'918.2
2018-Aug-12 02:00N 44°35' E 013°07'918.1
2018-Aug-12 01:30N 44°26' E 013°11'918.1
2018-Aug-12 01:00N 44°18' E 013°15'2017.8
2018-Aug-11 23:53N 44°06' E 013°37'617.4
2018-Aug-11 23:31N 44°02' E 013°44'917.4
2018-Aug-11 23:00N 43°57' E 013°54'917.6
2018-Aug-11 22:30N 43°52' E 014°04'917.5
2018-Aug-11 22:00N 43°48' E 014°15'7717.6
2018-Aug-11 17:38N 43°27' E 015°57'160 7.6
2018-Aug-10 20:30N 41°18' E 018°03'1817.6
2018-Aug-10 19:28N 41°04' E 018°19'38014.1
2018-Aug-09 16:30N 37°14' E 024°48'918.4
2018-Aug-09 16:01N 37°19' E 024°57'1019.1
2018-Aug-09 15:30N 37°26' E 025°05'918.0
2018-Aug-09 15:01N 37°28' E 025°16'2 4.9
2018-Aug-09 14:30N 37°27' E 025°19'0 0.0
2018-Aug-09 14:00N 37°27' E 025°19'0 0.0
2018-Aug-09 13:22N 37°27' E 025°19'0 0.1
2018-Aug-09 12:37N 37°27' E 025°19'0 0.0
2018-Aug-09 12:22N 37°27' E 025°19'0 0.0
2018-Aug-09 11:55N 37°27' E 025°19'0 0.0
2018-Aug-09 11:28N 37°27' E 025°19'0 0.0
2018-Aug-09 10:22N 37°27' E 025°19'0 0.0
2018-Aug-09 09:55N 37°27' E 025°19'0 0.0
2018-Aug-09 09:30N 37°27' E 025°19'0 0.0
2018-Aug-09 09:00N 37°27' E 025°19'0 0.0
2018-Aug-09 08:30N 37°27' E 025°19'0 0.0
2018-Aug-09 07:58N 37°27' E 025°19'0 0.0
2018-Aug-09 07:29N 37°27' E 025°19'0 0.0
2018-Aug-09 07:00N 37°27' E 025°19'0 0.0
2018-Aug-09 06:30N 37°27' E 025°19'0 0.0
2018-Aug-09 06:00N 37°27' E 025°19'0 0.0
2018-Aug-09 05:30N 37°27' E 025°19'0 0.0
2018-Aug-09 05:00N 37°27' E 025°19'0 0.0
2018-Aug-09 04:29N 37°27' E 025°19'0 0.3
2018-Aug-09 04:00N 37°27' E 025°19'3 5.7
2018-Aug-09 03:30N 37°28' E 025°16'611.1
2018-Aug-09 03:00N 37°26' E 025°09'611.9
2018-Aug-09 02:30N 37°21' E 025°07'612.0
2018-Aug-09 02:00N 37°17' E 025°01'612.7
2018-Aug-09 01:30N 37°15' E 024°53'  
2018-Aug-06 20:20N 41°07' E 017°30'  

Dump ship's entire track history